Aeroporto :
LOGIN :

Iscrizione | Disclaimer

   EN    FR    IT 

 










Sommario :    VFR   VFR Marginale   IFR   IFR Intensivo   IFR Molto Intensivo
Visibilità : 
Base nubi : 
>= 8 km
>= 3000ft
5 / 8 km
1000 / 3000 ft
1500m / 5 km
500 / 1000 ft
800 / 1500m
200 / 500 ft
< 800m
< 200 ft
Simboli :   Temporali  Nebbia  Neve Forte  Precipitazioni Forti  Vento > 20 kt
SIGMETs :   Varie  Temporali  Ghiacco  Turbolenza  Onda orograficha  Ceneri Vulcaniche







- Altitudine del aeroporto : 584 ft
- Carte del aeroporto


LFPV - Villacoublay Vélizy

ULTIMO METAR :
  • 211330Z AUTO VRB05KT CAVOK 22/08 Q1026 NOSIG

METARs OBSOLETI :
  • 211300Z AUTO VRB03KT CAVOK 22/09 Q1026 NOSIG
  • 211230Z AUTO 12006KT 050V200 CAVOK 22/10 Q1027 NOSIG
  • 211200Z AUTO 04003KT 030V090 CAVOK 21/09 Q1027 NOSIG
  • 211130Z AUTO 11005KT 040V160 CAVOK 21/10 Q1027 NOSIG
  • 211100Z AUTO VRB03KT CAVOK 21/10 Q1028 NOSIG

TAF TAF LFPV
Valido dal 21 a 09 ore il 22 a 09 ore UTC


210800Z 2109/2209 07010KT CAVOK
Nessun NOTAM noto per questo aeroporto.



MetMap, La meteo Aeronautica in un colpo d'occhio ! - Copyright ORBIFLY Dicembre 2007 - Disclaimer

ORBIFLY MET'MAP TEAM :

Programmazione e sviluppo : Alexandra Zaïnal
Concezione e sviluppo : Baudouin d'Aumeries
Co-Programmazione e sviluppo : Marc-Olivier Méhu
Supporto tecnico e logistico : Manuel Goepfert
Aiuto per la traduzione : Arnaldo La Scala

Contatto : metmap@orbifly.com




FONTI E CREDITI :

   NOAA